sensor_id;sensor_type;location;lat;lon;timestamp;P1;durP1;ratioP1;P2;durP2;ratioP2
21274;SDS011;36472;52.170;20.884;2023-06-22T00:00:43;27.90;;;25.20;;
21274;SDS011;36472;52.170;20.884;2023-06-22T00:03:29;27.27;;;24.58;;
21274;SDS011;36472;52.170;20.884;2023-06-22T00:05:58;26.80;;;24.15;;
21274;SDS011;36472;52.170;20.884;2023-06-22T00:08:29;26.92;;;24.40;;
21274;SDS011;36472;52.170;20.884;2023-06-22T00:10:58;26.65;;;23.88;;
21274;SDS011;36472;52.170;20.884;2023-06-22T00:13:27;26.40;;;23.80;;
21274;SDS011;36472;52.170;20.884;2023-06-22T00:15:56;26.88;;;24.27;;
21274;SDS011;36472;52.170;20.884;2023-06-22T00:18:25;26.77;;;24.13;;
21274;SDS011;36472;52.170;20.884;2023-06-22T00:20:55;27.60;;;24.70;;
21274;SDS011;36472;52.170;20.884;2023-06-22T00:23:25;26.58;;;23.83;;
21274;SDS011;36472;52.170;20.884;2023-06-22T00:25:56;26.80;;;24.30;;
21274;SDS011;36472;52.170;20.884;2023-06-22T00:28:25;26.13;;;23.63;;
21274;SDS011;36472;52.170;20.884;2023-06-22T00:30:54;26.80;;;24.17;;
21274;SDS011;36472;52.170;20.884;2023-06-22T00:33:25;27.23;;;24.63;;
21274;SDS011;36472;52.170;20.884;2023-06-22T00:35:55;27.65;;;25.00;;
21274;SDS011;36472;52.170;20.884;2023-06-22T00:38:24;26.23;;;23.65;;
21274;SDS011;36472;52.170;20.884;2023-06-22T00:40:53;26.80;;;24.05;;
21274;SDS011;36472;52.170;20.884;2023-06-22T00:43:24;25.48;;;22.88;;
21274;SDS011;36472;52.170;20.884;2023-06-22T00:45:53;26.25;;;23.65;;
21274;SDS011;36472;52.170;20.884;2023-06-22T00:48:24;26.40;;;23.80;;
21274;SDS011;36472;52.170;20.884;2023-06-22T00:50:54;26.25;;;23.70;;
21274;SDS011;36472;52.170;20.884;2023-06-22T00:53:23;26.73;;;23.67;;
21274;SDS011;36472;52.170;20.884;2023-06-22T00:55:53;25.80;;;23.10;;
21274;SDS011;36472;52.170;20.884;2023-06-22T00:58:27;25.33;;;22.90;;
21274;SDS011;36472;52.170;20.884;2023-06-22T01:00:56;25.33;;;22.55;;
21274;SDS011;36472;52.170;20.884;2023-06-22T01:03:27;24.88;;;22.27;;
21274;SDS011;36472;52.170;20.884;2023-06-22T01:05:58;24.05;;;21.75;;
21274;SDS011;36472;52.170;20.884;2023-06-22T01:08:44;24.77;;;22.40;;
21274;SDS011;36472;52.170;20.884;2023-06-22T01:11:23;25.15;;;22.75;;
21274;SDS011;36472;52.170;20.884;2023-06-22T01:14:06;26.52;;;23.98;;
21274;SDS011;36472;52.170;20.884;2023-06-22T01:16:43;25.30;;;22.83;;
21274;SDS011;36472;52.170;20.884;2023-06-22T01:19:22;25.63;;;23.08;;
21274;SDS011;36472;52.170;20.884;2023-06-22T01:22:08;26.70;;;23.90;;
21274;SDS011;36472;52.170;20.884;2023-06-22T01:24:45;26.55;;;24.05;;
21274;SDS011;36472;52.170;20.884;2023-06-22T01:27:31;26.50;;;24.00;;
21274;SDS011;36472;52.170;20.884;2023-06-22T01:30:10;25.70;;;23.13;;
21274;SDS011;36472;52.170;20.884;2023-06-22T01:32:44;27.02;;;24.35;;
21274;SDS011;36472;52.170;20.884;2023-06-22T01:35:15;25.33;;;22.80;;
21274;SDS011;36472;52.170;20.884;2023-06-22T01:37:46;25.05;;;22.30;;
21274;SDS011;36472;52.170;20.884;2023-06-22T01:40:18;27.30;;;23.58;;
21274;SDS011;36472;52.170;20.884;2023-06-22T01:42:51;26.90;;;24.30;;
21274;SDS011;36472;52.170;20.884;2023-06-22T01:45:22;26.90;;;24.25;;
21274;SDS011;36472;52.170;20.884;2023-06-22T01:47:53;26.52;;;23.98;;
21274;SDS011;36472;52.170;20.884;2023-06-22T01:50:24;26.15;;;23.55;;
21274;SDS011;36472;52.170;20.884;2023-06-22T01:52:55;25.17;;;22.48;;
21274;SDS011;36472;52.170;20.884;2023-06-22T01:55:25;28.08;;;24.95;;
21274;SDS011;36472;52.170;20.884;2023-06-22T01:57:54;25.08;;;22.52;;
21274;SDS011;36472;52.170;20.884;2023-06-22T02:00:25;27.80;;;24.95;;
21274;SDS011;36472;52.170;20.884;2023-06-22T02:03:03;27.33;;;24.52;;
21274;SDS011;36472;52.170;20.884;2023-06-22T02:05:41;28.50;;;25.48;;
21274;SDS011;36472;52.170;20.884;2023-06-22T02:08:17;28.70;;;25.80;;
21274;SDS011;36472;52.170;20.884;2023-06-22T02:10:50;29.77;;;26.83;;
21274;SDS011;36472;52.170;20.884;2023-06-22T02:13:23;30.13;;;26.90;;
21274;SDS011;36472;52.170;20.884;2023-06-22T02:20:27;28.63;;;25.77;;
21274;SDS011;36472;52.170;20.884;2023-06-22T02:22:57;28.95;;;25.80;;
21274;SDS011;36472;52.170;20.884;2023-06-22T02:25:26;32.38;;;28.48;;
21274;SDS011;36472;52.170;20.884;2023-06-22T02:27:55;32.42;;;28.90;;
21274;SDS011;36472;52.170;20.884;2023-06-22T02:30:24;35.90;;;30.85;;
21274;SDS011;36472;52.170;20.884;2023-06-22T02:32:54;37.63;;;32.38;;
21274;SDS011;36472;52.170;20.884;2023-06-22T02:35:29;38.38;;;33.40;;
21274;SDS011;36472;52.170;20.884;2023-06-22T02:37:59;43.33;;;37.65;;
21274;SDS011;36472;52.170;20.884;2023-06-22T02:40:29;43.55;;;38.33;;
21274;SDS011;36472;52.170;20.884;2023-06-22T02:42:58;48.35;;;37.63;;
21274;SDS011;36472;52.170;20.884;2023-06-22T02:45:30;46.22;;;39.10;;
21274;SDS011;36472;52.170;20.884;2023-06-22T02:47:59;46.38;;;40.05;;
21274;SDS011;36472;52.170;20.884;2023-06-22T02:50:30;47.92;;;38.55;;
21274;SDS011;36472;52.170;20.884;2023-06-22T02:52:59;50.67;;;41.72;;
21274;SDS011;36472;52.170;20.884;2023-06-22T02:55:32;49.15;;;42.05;;
21274;SDS011;36472;52.170;20.884;2023-06-22T02:58:01;52.97;;;41.30;;
21274;SDS011;36472;52.170;20.884;2023-06-22T03:00:34;47.55;;;39.83;;
21274;SDS011;36472;52.170;20.884;2023-06-22T03:03:03;48.45;;;40.20;;
21274;SDS011;36472;52.170;20.884;2023-06-22T03:05:34;45.88;;;39.72;;
21274;SDS011;36472;52.170;20.884;2023-06-22T03:08:03;50.15;;;39.63;;
21274;SDS011;36472;52.170;20.884;2023-06-22T03:10:35;50.10;;;39.50;;
21274;SDS011;36472;52.170;20.884;2023-06-22T03:13:04;48.90;;;40.53;;
21274;SDS011;36472;52.170;20.884;2023-06-22T03:15:33;47.22;;;39.92;;
21274;SDS011;36472;52.170;20.884;2023-06-22T03:18:02;45.88;;;40.15;;
21274;SDS011;36472;52.170;20.884;2023-06-22T03:20:33;51.55;;;42.60;;
21274;SDS011;36472;52.170;20.884;2023-06-22T03:23:02;47.60;;;40.13;;
21274;SDS011;36472;52.170;20.884;2023-06-22T03:25:32;46.88;;;41.38;;
21274;SDS011;36472;52.170;20.884;2023-06-22T03:28:02;47.88;;;40.20;;
21274;SDS011;36472;52.170;20.884;2023-06-22T03:30:31;48.65;;;39.85;;
21274;SDS011;36472;52.170;20.884;2023-06-22T03:33:00;47.97;;;39.95;;
21274;SDS011;36472;52.170;20.884;2023-06-22T03:35:29;46.15;;;39.90;;
21274;SDS011;36472;52.170;20.884;2023-06-22T03:38:01;46.70;;;39.88;;
21274;SDS011;36472;52.170;20.884;2023-06-22T03:40:30;45.70;;;38.90;;
21274;SDS011;36472;52.170;20.884;2023-06-22T03:43:00;45.92;;;39.58;;
21274;SDS011;36472;52.170;20.884;2023-06-22T03:45:30;44.97;;;36.72;;
21274;SDS011;36472;52.170;20.884;2023-06-22T03:47:58;41.03;;;36.50;;
21274;SDS011;36472;52.170;20.884;2023-06-22T03:50:28;41.53;;;36.20;;
21274;SDS011;36472;52.170;20.884;2023-06-22T03:52:58;42.63;;;37.83;;
21274;SDS011;36472;52.170;20.884;2023-06-22T03:55:29;43.10;;;35.22;;
21274;SDS011;36472;52.170;20.884;2023-06-22T03:57:58;42.65;;;36.42;;
21274;SDS011;36472;52.170;20.884;2023-06-22T04:00:32;42.13;;;35.78;;
21274;SDS011;36472;52.170;20.884;2023-06-22T04:03:01;41.38;;;34.80;;
21274;SDS011;36472;52.170;20.884;2023-06-22T04:05:31;41.55;;;34.88;;
21274;SDS011;36472;52.170;20.884;2023-06-22T04:07:59;41.10;;;35.95;;
21274;SDS011;36472;52.170;20.884;2023-06-22T04:10:30;44.15;;;37.65;;
21274;SDS011;36472;52.170;20.884;2023-06-22T04:12:59;40.08;;;34.67;;
21274;SDS011;36472;52.170;20.884;2023-06-22T04:15:28;41.47;;;36.83;;
21274;SDS011;36472;52.170;20.884;2023-06-22T04:17:57;42.75;;;35.33;;
21274;SDS011;36472;52.170;20.884;2023-06-22T04:20:26;39.08;;;34.58;;
21274;SDS011;36472;52.170;20.884;2023-06-22T04:22:56;38.45;;;33.88;;
21274;SDS011;36472;52.170;20.884;2023-06-22T04:25:25;38.55;;;34.35;;
21274;SDS011;36472;52.170;20.884;2023-06-22T04:27:55;39.53;;;34.40;;
21274;SDS011;36472;52.170;20.884;2023-06-22T04:30:24;39.00;;;33.08;;
21274;SDS011;36472;52.170;20.884;2023-06-22T04:32:54;40.65;;;33.60;;
21274;SDS011;36472;52.170;20.884;2023-06-22T04:35:25;40.40;;;34.35;;
21274;SDS011;36472;52.170;20.884;2023-06-22T04:37:55;37.42;;;33.40;;
21274;SDS011;36472;52.170;20.884;2023-06-22T04:40:26;36.05;;;32.25;;
21274;SDS011;36472;52.170;20.884;2023-06-22T04:42:57;35.88;;;32.03;;
21274;SDS011;36472;52.170;20.884;2023-06-22T04:50:01;36.40;;;30.33;;
21274;SDS011;36472;52.170;20.884;2023-06-22T04:52:32;34.33;;;30.10;;
21274;SDS011;36472;52.170;20.884;2023-06-22T04:55:01;34.55;;;30.42;;
21274;SDS011;36472;52.170;20.884;2023-06-22T04:57:31;34.70;;;29.90;;
21274;SDS011;36472;52.170;20.884;2023-06-22T05:00:02;35.80;;;29.63;;
21274;SDS011;36472;52.170;20.884;2023-06-22T05:02:43;32.05;;;28.15;;
21274;SDS011;36472;52.170;20.884;2023-06-22T05:05:14;31.73;;;28.35;;
21274;SDS011;36472;52.170;20.884;2023-06-22T05:07:45;35.88;;;28.88;;
21274;SDS011;36472;52.170;20.884;2023-06-22T05:10:17;32.45;;;28.25;;
21274;SDS011;36472;52.170;20.884;2023-06-22T05:12:47;30.98;;;26.50;;
21274;SDS011;36472;52.170;20.884;2023-06-22T05:15:18;30.15;;;25.13;;
21274;SDS011;36472;52.170;20.884;2023-06-22T05:17:47;30.80;;;27.45;;
21274;SDS011;36472;52.170;20.884;2023-06-22T05:20:16;31.65;;;26.52;;
21274;SDS011;36472;52.170;20.884;2023-06-22T05:22:45;29.83;;;26.42;;
21274;SDS011;36472;52.170;20.884;2023-06-22T05:25:14;30.33;;;26.30;;
21274;SDS011;36472;52.170;20.884;2023-06-22T05:27:44;28.48;;;24.60;;
21274;SDS011;36472;52.170;20.884;2023-06-22T05:30:13;28.02;;;24.08;;
21274;SDS011;36472;52.170;20.884;2023-06-22T05:32:47;27.85;;;24.90;;
21274;SDS011;36472;52.170;20.884;2023-06-22T05:35:16;26.75;;;23.73;;
21274;SDS011;36472;52.170;20.884;2023-06-22T05:37:44;27.52;;;23.52;;
21274;SDS011;36472;52.170;20.884;2023-06-22T05:40:13;29.08;;;23.95;;
21274;SDS011;36472;52.170;20.884;2023-06-22T05:42:42;29.30;;;24.20;;
21274;SDS011;36472;52.170;20.884;2023-06-22T05:45:12;25.50;;;22.77;;
21274;SDS011;36472;52.170;20.884;2023-06-22T05:47:40;27.48;;;24.33;;
21274;SDS011;36472;52.170;20.884;2023-06-22T05:50:11;27.27;;;24.05;;
21274;SDS011;36472;52.170;20.884;2023-06-22T05:52:40;24.85;;;22.33;;
21274;SDS011;36472;52.170;20.884;2023-06-22T05:55:09;25.42;;;22.73;;
21274;SDS011;36472;52.170;20.884;2023-06-22T06:02:10;28.00;;;21.60;;
21274;SDS011;36472;52.170;20.884;2023-06-22T06:04:39;25.63;;;21.98;;
21274;SDS011;36472;52.170;20.884;2023-06-22T06:07:09;25.58;;;21.92;;
21274;SDS011;36472;52.170;20.884;2023-06-22T06:09:38;23.85;;;21.13;;
21274;SDS011;36472;52.170;20.884;2023-06-22T06:12:07;27.08;;;20.88;;
21274;SDS011;36472;52.170;20.884;2023-06-22T06:14:37;21.75;;;19.45;;
21274;SDS011;36472;52.170;20.884;2023-06-22T06:17:06;24.20;;;20.13;;
21274;SDS011;36472;52.170;20.884;2023-06-22T06:19:35;27.05;;;20.55;;
21274;SDS011;36472;52.170;20.884;2023-06-22T06:22:04;25.63;;;20.75;;
21274;SDS011;36472;52.170;20.884;2023-06-22T06:24:34;23.70;;;20.27;;
21274;SDS011;36472;52.170;20.884;2023-06-22T06:27:03;24.88;;;20.27;;
21274;SDS011;36472;52.170;20.884;2023-06-22T06:34:05;23.17;;;19.67;;
21274;SDS011;36472;52.170;20.884;2023-06-22T06:36:34;22.02;;;19.73;;
21274;SDS011;36472;52.170;20.884;2023-06-22T06:39:04;20.90;;;17.98;;
21274;SDS011;36472;52.170;20.884;2023-06-22T06:41:34;20.17;;;17.75;;
21274;SDS011;36472;52.170;20.884;2023-06-22T06:44:10;18.30;;;16.38;;
21274;SDS011;36472;52.170;20.884;2023-06-22T06:46:38;17.95;;;16.10;;
21274;SDS011;36472;52.170;20.884;2023-06-22T06:53:42;18.65;;;15.27;;
21274;SDS011;36472;52.170;20.884;2023-06-22T06:56:11;19.52;;;15.00;;
21274;SDS011;36472;52.170;20.884;2023-06-22T06:58:42;16.75;;;15.05;;
21274;SDS011;36472;52.170;20.884;2023-06-22T07:01:12;16.55;;;14.85;;
21274;SDS011;36472;52.170;20.884;2023-06-22T07:03:42;16.33;;;14.57;;
21274;SDS011;36472;52.170;20.884;2023-06-22T07:06:11;15.82;;;13.95;;
21274;SDS011;36472;52.170;20.884;2023-06-22T07:08:41;18.88;;;13.68;;
21274;SDS011;36472;52.170;20.884;2023-06-22T07:11:10;17.35;;;13.85;;
21274;SDS011;36472;52.170;20.884;2023-06-22T07:13:39;16.70;;;14.75;;
21274;SDS011;36472;52.170;20.884;2023-06-22T07:16:10;13.45;;;12.05;;
21274;SDS011;36472;52.170;20.884;2023-06-22T07:18:39;13.35;;;12.00;;
21274;SDS011;36472;52.170;20.884;2023-06-22T07:21:08;15.45;;;13.57;;
21274;SDS011;36472;52.170;20.884;2023-06-22T07:23:37;13.18;;;11.70;;
21274;SDS011;36472;52.170;20.884;2023-06-22T07:26:06;13.50;;;11.65;;
21274;SDS011;36472;52.170;20.884;2023-06-22T07:28:35;13.38;;;10.35;;
21274;SDS011;36472;52.170;20.884;2023-06-22T07:31:06;12.73;;;11.43;;
21274;SDS011;36472;52.170;20.884;2023-06-22T07:33:35;15.82;;;11.50;;
21274;SDS011;36472;52.170;20.884;2023-06-22T07:40:36;12.32;;;11.02;;
21274;SDS011;36472;52.170;20.884;2023-06-22T07:43:05;13.73;;;9.45;;
21274;SDS011;36472;52.170;20.884;2023-06-22T07:45:34;11.75;;;10.63;;
21274;SDS011;36472;52.170;20.884;2023-06-22T07:48:04;12.00;;;10.60;;
21274;SDS011;36472;52.170;20.884;2023-06-22T07:50:33;16.75;;;9.85;;
21274;SDS011;36472;52.170;20.884;2023-06-22T07:53:02;11.43;;;9.43;;
21274;SDS011;36472;52.170;20.884;2023-06-22T07:55:31;13.45;;;9.57;;
21274;SDS011;36472;52.170;20.884;2023-06-22T07:58:01;18.70;;;9.48;;
21274;SDS011;36472;52.170;20.884;2023-06-22T08:00:30;10.38;;;8.88;;
21274;SDS011;36472;52.170;20.884;2023-06-22T08:03:00;13.25;;;9.02;;
21274;SDS011;36472;52.170;20.884;2023-06-22T08:05:32;11.48;;;7.95;;
21274;SDS011;36472;52.170;20.884;2023-06-22T08:08:01;11.88;;;7.32;;
21274;SDS011;36472;52.170;20.884;2023-06-22T08:10:31;9.82;;;8.35;;
21274;SDS011;36472;52.170;20.884;2023-06-22T08:13:01;8.82;;;7.20;;
21274;SDS011;36472;52.170;20.884;2023-06-22T08:15:30;7.97;;;6.97;;
21274;SDS011;36472;52.170;20.884;2023-06-22T08:22:33;9.80;;;7.90;;
21274;SDS011;36472;52.170;20.884;2023-06-22T08:25:03;8.90;;;7.63;;
21274;SDS011;36472;52.170;20.884;2023-06-22T08:27:34;9.13;;;7.72;;
21274;SDS011;36472;52.170;20.884;2023-06-22T08:30:03;10.95;;;7.28;;
21274;SDS011;36472;52.170;20.884;2023-06-22T08:32:35;9.55;;;7.10;;
21274;SDS011;36472;52.170;20.884;2023-06-22T08:35:04;11.48;;;7.15;;
21274;SDS011;36472;52.170;20.884;2023-06-22T08:37:37;7.90;;;6.30;;
21274;SDS011;36472;52.170;20.884;2023-06-22T08:40:07;6.68;;;5.97;;
21274;SDS011;36472;52.170;20.884;2023-06-22T08:42:40;8.00;;;6.65;;
21274;SDS011;36472;52.170;20.884;2023-06-22T08:45:09;6.60;;;5.97;;
21274;SDS011;36472;52.170;20.884;2023-06-22T08:47:39;6.65;;;6.05;;
21274;SDS011;36472;52.170;20.884;2023-06-22T08:50:09;6.50;;;5.80;;
21274;SDS011;36472;52.170;20.884;2023-06-22T08:52:41;5.65;;;5.15;;
21274;SDS011;36472;52.170;20.884;2023-06-22T08:55:10;5.70;;;5.18;;
21274;SDS011;36472;52.170;20.884;2023-06-22T08:57:39;6.68;;;5.45;;
21274;SDS011;36472;52.170;20.884;2023-06-22T09:04:42;5.82;;;4.45;;
21274;SDS011;36472;52.170;20.884;2023-06-22T09:07:11;5.07;;;4.57;;
21274;SDS011;36472;52.170;20.884;2023-06-22T09:09:41;5.35;;;4.70;;
21274;SDS011;36472;52.170;20.884;2023-06-22T09:12:10;5.55;;;4.60;;
21274;SDS011;36472;52.170;20.884;2023-06-22T09:14:39;5.22;;;4.35;;
21274;SDS011;36472;52.170;20.884;2023-06-22T09:17:08;5.97;;;3.80;;
21274;SDS011;36472;52.170;20.884;2023-06-22T09:19:37;3.97;;;3.58;;
21274;SDS011;36472;52.170;20.884;2023-06-22T09:22:06;4.32;;;3.83;;
21274;SDS011;36472;52.170;20.884;2023-06-22T09:24:36;3.97;;;3.50;;
21274;SDS011;36472;52.170;20.884;2023-06-22T09:27:06;4.15;;;3.75;;
21274;SDS011;36472;52.170;20.884;2023-06-22T09:29:35;7.10;;;4.00;;
21274;SDS011;36472;52.170;20.884;2023-06-22T09:32:04;4.05;;;3.47;;
21274;SDS011;36472;52.170;20.884;2023-06-22T09:34:35;5.72;;;3.70;;
21274;SDS011;36472;52.170;20.884;2023-06-22T09:37:04;3.85;;;3.45;;
21274;SDS011;36472;52.170;20.884;2023-06-22T09:39:34;6.57;;;3.60;;
21274;SDS011;36472;52.170;20.884;2023-06-22T09:42:03;5.40;;;3.58;;
21274;SDS011;36472;52.170;20.884;2023-06-22T09:44:35;4.68;;;3.35;;
21274;SDS011;36472;52.170;20.884;2023-06-22T09:47:04;6.45;;;3.97;;
21274;SDS011;36472;52.170;20.884;2023-06-22T09:49:34;4.78;;;3.80;;
21274;SDS011;36472;52.170;20.884;2023-06-22T09:52:14;8.10;;;4.10;;
21274;SDS011;36472;52.170;20.884;2023-06-22T09:59:17;6.85;;;4.22;;
21274;SDS011;36472;52.170;20.884;2023-06-22T10:01:46;4.85;;;4.22;;
21274;SDS011;36472;52.170;20.884;2023-06-22T10:04:15;4.28;;;3.88;;
21274;SDS011;36472;52.170;20.884;2023-06-22T10:06:44;5.90;;;4.30;;
21274;SDS011;36472;52.170;20.884;2023-06-22T10:09:13;5.22;;;4.55;;
21274;SDS011;36472;52.170;20.884;2023-06-22T10:11:42;4.70;;;4.18;;
21274;SDS011;36472;52.170;20.884;2023-06-22T10:14:11;5.50;;;4.18;;
21274;SDS011;36472;52.170;20.884;2023-06-22T10:16:41;5.28;;;4.18;;
21274;SDS011;36472;52.170;20.884;2023-06-22T10:19:10;6.20;;;4.78;;
21274;SDS011;36472;52.170;20.884;2023-06-22T10:21:39;9.00;;;4.72;;
21274;SDS011;36472;52.170;20.884;2023-06-22T10:24:09;5.15;;;4.30;;
21274;SDS011;36472;52.170;20.884;2023-06-22T10:26:37;7.63;;;4.70;;
21274;SDS011;36472;52.170;20.884;2023-06-22T10:29:06;5.45;;;4.72;;
21274;SDS011;36472;52.170;20.884;2023-06-22T10:31:57;7.38;;;4.95;;
21274;SDS011;36472;52.170;20.884;2023-06-22T10:34:26;5.22;;;4.75;;
21274;SDS011;36472;52.170;20.884;2023-06-22T10:36:55;6.38;;;4.82;;
21274;SDS011;36472;52.170;20.884;2023-06-22T10:39:24;7.25;;;5.28;;
21274;SDS011;36472;52.170;20.884;2023-06-22T10:41:52;6.07;;;4.68;;
21274;SDS011;36472;52.170;20.884;2023-06-22T10:44:23;6.25;;;4.63;;
21274;SDS011;36472;52.170;20.884;2023-06-22T10:46:51;7.43;;;5.30;;
21274;SDS011;36472;52.170;20.884;2023-06-22T10:49:23;5.70;;;4.82;;
21274;SDS011;36472;52.170;20.884;2023-06-22T10:51:52;5.28;;;4.82;;
21274;SDS011;36472;52.170;20.884;2023-06-22T10:54:21;6.45;;;4.80;;
21274;SDS011;36472;52.170;20.884;2023-06-22T10:56:50;4.93;;;4.50;;
21274;SDS011;36472;52.170;20.884;2023-06-22T10:59:19;6.32;;;4.85;;
21274;SDS011;36472;52.170;20.884;2023-06-22T11:01:50;7.00;;;4.50;;
21274;SDS011;36472;52.170;20.884;2023-06-22T11:04:20;7.50;;;5.10;;
21274;SDS011;36472;52.170;20.884;2023-06-22T11:06:50;5.90;;;5.03;;
21274;SDS011;36472;52.170;20.884;2023-06-22T11:09:19;6.20;;;4.68;;
21274;SDS011;36472;52.170;20.884;2023-06-22T11:11:55;6.90;;;5.15;;
21274;SDS011;36472;52.170;20.884;2023-06-22T11:14:26;6.00;;;5.38;;
21274;SDS011;36472;52.170;20.884;2023-06-22T11:16:55;9.27;;;4.70;;
21274;SDS011;36472;52.170;20.884;2023-06-22T11:19:25;6.43;;;4.97;;
21274;SDS011;36472;52.170;20.884;2023-06-22T11:21:55;8.88;;;4.75;;
21274;SDS011;36472;52.170;20.884;2023-06-22T11:24:24;7.70;;;5.38;;
21274;SDS011;36472;52.170;20.884;2023-06-22T11:26:53;6.40;;;5.07;;
21274;SDS011;36472;52.170;20.884;2023-06-22T11:29:24;5.32;;;4.40;;
21274;SDS011;36472;52.170;20.884;2023-06-22T11:32:04;5.25;;;4.75;;
21274;SDS011;36472;52.170;20.884;2023-06-22T11:34:38;5.32;;;4.93;;
21274;SDS011;36472;52.170;20.884;2023-06-22T11:37:08;7.95;;;5.57;;
21274;SDS011;36472;52.170;20.884;2023-06-22T11:39:37;6.93;;;4.78;;
21274;SDS011;36472;52.170;20.884;2023-06-22T11:42:14;6.18;;;4.88;;
21274;SDS011;36472;52.170;20.884;2023-06-22T11:44:43;5.53;;;5.03;;
21274;SDS011;36472;52.170;20.884;2023-06-22T11:47:12;5.75;;;4.82;;
21274;SDS011;36472;52.170;20.884;2023-06-22T11:49:41;5.15;;;4.65;;
21274;SDS011;36472;52.170;20.884;2023-06-22T11:52:11;6.03;;;5.13;;
21274;SDS011;36472;52.170;20.884;2023-06-22T11:54:40;5.07;;;4.57;;
21274;SDS011;36472;52.170;20.884;2023-06-22T12:01:41;7.05;;;5.13;;
21274;SDS011;36472;52.170;20.884;2023-06-22T12:04:10;5.65;;;4.47;;
21274;SDS011;36472;52.170;20.884;2023-06-22T12:06:39;5.53;;;4.93;;
21274;SDS011;36472;52.170;20.884;2023-06-22T12:09:10;10.25;;;5.65;;
21274;SDS011;36472;52.170;20.884;2023-06-22T12:11:41;5.32;;;4.80;;
21274;SDS011;36472;52.170;20.884;2023-06-22T12:14:09;7.05;;;5.25;;
21274;SDS011;36472;52.170;20.884;2023-06-22T12:16:39;5.65;;;4.68;;
21274;SDS011;36472;52.170;20.884;2023-06-22T12:19:07;6.90;;;5.15;;
21274;SDS011;36472;52.170;20.884;2023-06-22T12:21:37;5.43;;;4.45;;
21274;SDS011;36472;52.170;20.884;2023-06-22T12:24:07;5.25;;;4.75;;
21274;SDS011;36472;52.170;20.884;2023-06-22T12:26:38;7.47;;;5.03;;
21274;SDS011;36472;52.170;20.884;2023-06-22T12:29:06;6.20;;;4.90;;
21274;SDS011;36472;52.170;20.884;2023-06-22T12:31:36;7.50;;;4.97;;
21274;SDS011;36472;52.170;20.884;2023-06-22T12:34:05;7.55;;;4.47;;
21274;SDS011;36472;52.170;20.884;2023-06-22T12:36:35;5.13;;;4.60;;
21274;SDS011;36472;52.170;20.884;2023-06-22T12:39:03;5.80;;;4.45;;
21274;SDS011;36472;52.170;20.884;2023-06-22T12:41:34;6.35;;;4.43;;
21274;SDS011;36472;52.170;20.884;2023-06-22T12:44:03;5.53;;;4.85;;
21274;SDS011;36472;52.170;20.884;2023-06-22T12:46:33;7.00;;;4.72;;
21274;SDS011;36472;52.170;20.884;2023-06-22T12:49:04;4.93;;;4.43;;
21274;SDS011;36472;52.170;20.884;2023-06-22T12:51:33;6.00;;;4.85;;
21274;SDS011;36472;52.170;20.884;2023-06-22T12:54:09;5.47;;;4.90;;
21274;SDS011;36472;52.170;20.884;2023-06-22T12:56:40;5.43;;;4.65;;
21274;SDS011;36472;52.170;20.884;2023-06-22T12:59:10;5.15;;;4.65;;
21274;SDS011;36472;52.170;20.884;2023-06-22T13:06:11;5.50;;;4.85;;
21274;SDS011;36472;52.170;20.884;2023-06-22T13:08:40;6.40;;;3.95;;
21274;SDS011;36472;52.170;20.884;2023-06-22T13:11:12;6.60;;;4.32;;
21274;SDS011;36472;52.170;20.884;2023-06-22T13:13:43;5.40;;;4.40;;
21274;SDS011;36472;52.170;20.884;2023-06-22T13:16:14;5.68;;;4.50;;
21274;SDS011;36472;52.170;20.884;2023-06-22T13:18:43;4.93;;;4.53;;
21274;SDS011;36472;52.170;20.884;2023-06-22T13:21:12;8.40;;;4.60;;
21274;SDS011;36472;52.170;20.884;2023-06-22T13:23:41;6.25;;;4.35;;
21274;SDS011;36472;52.170;20.884;2023-06-22T13:26:10;4.70;;;4.00;;
21274;SDS011;36472;52.170;20.884;2023-06-22T13:28:39;3.58;;;3.28;;
21274;SDS011;36472;52.170;20.884;2023-06-22T13:31:09;5.00;;;3.85;;
21274;SDS011;36472;52.170;20.884;2023-06-22T13:33:38;4.65;;;4.15;;
21274;SDS011;36472;52.170;20.884;2023-06-22T13:36:08;7.10;;;4.35;;
21274;SDS011;36472;52.170;20.884;2023-06-22T13:38:36;4.60;;;4.20;;
21274;SDS011;36472;52.170;20.884;2023-06-22T13:41:06;5.20;;;4.50;;
21274;SDS011;36472;52.170;20.884;2023-06-22T13:43:35;5.97;;;4.53;;
21274;SDS011;36472;52.170;20.884;2023-06-22T13:46:04;5.18;;;4.68;;
21274;SDS011;36472;52.170;20.884;2023-06-22T13:48:34;7.18;;;4.50;;
21274;SDS011;36472;52.170;20.884;2023-06-22T13:51:03;5.35;;;3.92;;
21274;SDS011;36472;52.170;20.884;2023-06-22T13:53:32;5.13;;;4.07;;
21274;SDS011;36472;52.170;20.884;2023-06-22T13:56:02;6.65;;;4.35;;
21274;SDS011;36472;52.170;20.884;2023-06-22T13:58:31;4.60;;;4.20;;
21274;SDS011;36472;52.170;20.884;2023-06-22T14:01:00;4.97;;;4.47;;
21274;SDS011;36472;52.170;20.884;2023-06-22T14:03:29;4.43;;;4.03;;
21274;SDS011;36472;52.170;20.884;2023-06-22T14:06:00;4.97;;;4.10;;
21274;SDS011;36472;52.170;20.884;2023-06-22T14:08:28;5.30;;;4.55;;
21274;SDS011;36472;52.170;20.884;2023-06-22T14:15:39;4.63;;;4.22;;
21274;SDS011;36472;52.170;20.884;2023-06-22T14:18:09;4.80;;;4.40;;
21274;SDS011;36472;52.170;20.884;2023-06-22T14:20:39;4.57;;;4.18;;
21274;SDS011;36472;52.170;20.884;2023-06-22T14:23:09;5.10;;;4.50;;
21274;SDS011;36472;52.170;20.884;2023-06-22T14:30:10;6.85;;;4.90;;
21274;SDS011;36472;52.170;20.884;2023-06-22T14:37:10;5.90;;;4.60;;
21274;SDS011;36472;52.170;20.884;2023-06-22T14:39:41;5.18;;;4.72;;
21274;SDS011;36472;52.170;20.884;2023-06-22T14:42:10;6.55;;;4.70;;
21274;SDS011;36472;52.170;20.884;2023-06-22T14:44:57;6.57;;;4.47;;
21274;SDS011;36472;52.170;20.884;2023-06-22T14:47:26;5.03;;;4.53;;
21274;SDS011;36472;52.170;20.884;2023-06-22T14:49:55;6.15;;;5.07;;
21274;SDS011;36472;52.170;20.884;2023-06-22T14:52:24;5.05;;;4.55;;
21274;SDS011;36472;52.170;20.884;2023-06-22T14:54:55;5.82;;;5.10;;
21274;SDS011;36472;52.170;20.884;2023-06-22T14:57:24;5.70;;;5.10;;
21274;SDS011;36472;52.170;20.884;2023-06-22T15:04:25;6.03;;;5.53;;
21274;SDS011;36472;52.170;20.884;2023-06-22T15:06:58;6.00;;;5.40;;
21274;SDS011;36472;52.170;20.884;2023-06-22T15:09:27;5.95;;;5.07;;
21274;SDS011;36472;52.170;20.884;2023-06-22T15:11:58;4.95;;;4.53;;
21274;SDS011;36472;52.170;20.884;2023-06-22T15:14:28;7.40;;;4.93;;
21274;SDS011;36472;52.170;20.884;2023-06-22T15:16:57;5.55;;;5.05;;
21274;SDS011;36472;52.170;20.884;2023-06-22T15:19:26;6.97;;;5.28;;
21274;SDS011;36472;52.170;20.884;2023-06-22T15:21:55;6.32;;;5.13;;
21274;SDS011;36472;52.170;20.884;2023-06-22T15:24:25;6.60;;;4.82;;
21274;SDS011;36472;52.170;20.884;2023-06-22T15:26:54;7.47;;;5.05;;
21274;SDS011;36472;52.170;20.884;2023-06-22T15:29:25;7.13;;;5.70;;
21274;SDS011;36472;52.170;20.884;2023-06-22T15:31:54;5.95;;;5.00;;
21274;SDS011;36472;52.170;20.884;2023-06-22T15:34:23;6.65;;;5.13;;
21274;SDS011;36472;52.170;20.884;2023-06-22T15:36:52;5.85;;;5.20;;
21274;SDS011;36472;52.170;20.884;2023-06-22T15:39:21;5.57;;;5.00;;
21274;SDS011;36472;52.170;20.884;2023-06-22T15:41:53;5.68;;;5.18;;
21274;SDS011;36472;52.170;20.884;2023-06-22T15:44:22;5.68;;;5.18;;
21274;SDS011;36472;52.170;20.884;2023-06-22T15:46:53;6.25;;;5.65;;